Bridgeview, Illinois
Current Conditions -  °F | °C
As of 5:53 PM on Friday 24 Oct 2014 (Local Time) from KMDW Reporting Station
Broken Clouds Broken Clouds  
Wind Chill: 65°   Ceiling: 25000
Heat Index: 65°   Visibility: 10mi
Dew Point: 46°   Wind: 6mph
Humidity: 50%   Direction: 230°SW
Pressure: 29.95"   Gusts: NA
Location:  41.75°N, 87.8°W
Report Text: KMDW 242253Z 23005KT 10SM SCT150 BKN250 18/08 A2995 RMK AO2 SLP142 T01830078
Loading
Personal Weather Stations






























Interactive Weather Map
Tropical Storm Tracking
New forecast layout! Learn more

10-Day Weather Forecast

Advertisements
Track Severe Weather on mobile